Time;durP1;ratioP1;P1;durP2;ratioP2;P2;SDS_P1;SDS_P2;PMS_P1;PMS_P2;Temp;Humidity;BMP_temperature;BMP_pressure;BME280_temperature;BME280_humidity;BME280_pressure;Samples;Min_cycle;Max_cycle;Signal;HPM_P1;HPM_P2
2023/06/27 00:00:51;;;;;;;6.63;2.60;;;19.00;90.60;;;;;;5002458;28;20054;-85
2023/06/27 00:03:18;;;;;;;5.32;2.42;;;19.00;90.60;;;;;;4984172;28;20030;-85
2023/06/27 00:05:43;;;;;;;4.90;2.60;;;19.00;90.60;;;;;;4985006;28;20084;-85
2023/06/27 00:08:09;;;;;;;4.60;2.40;;;19.00;90.70;;;;;;4968543;28;20038;-85
2023/06/27 00:10:35;;;;;;;4.25;2.28;;;19.00;90.70;;;;;;4950072;28;20511;-85
2023/06/27 00:13:00;;;;;;;3.80;2.42;;;19.00;90.80;;;;;;4998067;28;20023;-85
2023/06/27 00:15:34;;;;;;;5.13;2.65;;;18.90;90.80;;;;;;4981116;28;20044;-84
2023/06/27 00:17:59;;;;;;;3.42;2.40;;;19.00;90.90;;;;;;4965529;28;20064;-84
2023/06/27 00:20:25;;;;;;;4.53;2.50;;;19.00;90.90;;;;;;4980416;28;20054;-84
2023/06/27 00:22:51;;;;;;;5.43;2.90;;;18.90;90.90;;;;;;4964175;28;20135;-85
2023/06/27 00:25:19;;;;;;;5.38;2.33;;;18.90;91.00;;;;;;4980455;28;20096;-84
2023/06/27 00:27:45;;;;;;;6.10;2.50;;;18.90;91.10;;;;;;4964546;28;20035;-85
2023/06/27 00:30:11;;;;;;;7.53;3.08;;;18.90;91.10;;;;;;4980332;28;20055;-85
2023/06/27 00:32:37;;;;;;;3.63;2.75;;;18.90;91.30;;;;;;4964351;28;20023;-85
2023/06/27 00:35:02;;;;;;;4.55;2.53;;;18.90;91.30;;;;;;4980192;28;20096;-84
2023/06/27 00:37:28;;;;;;;4.45;2.50;;;18.90;91.40;;;;;;4964136;28;20114;-85
2023/06/27 00:39:54;;;;;;;5.93;2.88;;;18.90;91.40;;;;;;4963765;28;20038;-84
2023/06/27 00:42:20;;;;;;;4.00;2.63;;;18.90;91.50;;;;;;4964140;28;20050;-85
2023/06/27 00:44:45;;;;;;;4.53;2.55;;;18.90;91.50;;;;;;4980119;28;20068;-84
2023/06/27 00:47:12;;;;;;;3.33;2.42;;;19.00;91.50;;;;;;4964120;28;20031;-85
2023/06/27 00:49:37;;;;;;;3.55;2.65;;;19.00;91.60;;;;;;4964273;28;20035;-85
2023/06/27 00:52:04;;;;;;;3.38;2.20;;;19.00;91.60;;;;;;4979975;28;20037;-85
2023/06/27 00:54:30;;;;;;;5.90;2.88;;;19.00;91.70;;;;;;4997446;28;20092;-85
2023/06/27 00:56:56;;;;;;;4.28;2.50;;;19.00;91.70;;;;;;4963669;28;20058;-85
2023/06/27 00:59:22;;;;;;;6.78;2.70;;;19.10;91.80;;;;;;5000797;28;20085;-85
2023/06/27 01:01:48;;;;;;;5.47;2.70;;;19.00;91.80;;;;;;5008362;28;20027;-84
2023/06/27 01:04:14;;;;;;;4.53;2.40;;;19.10;91.90;;;;;;5003490;28;20057;-84
2023/06/27 01:07:09;;;;;;;5.68;3.03;;;19.10;91.90;;;;;;5004241;28;20038;-85
2023/06/27 01:09:50;;;;;;;5.20;2.78;;;19.10;91.90;;;;;;5003223;28;20041;-84
2023/06/27 01:12:25;;;;;;;6.75;3.05;;;19.20;91.80;;;;;;5019705;28;20013;-84
2023/06/27 01:14:56;;;;;;;2.55;2.30;;;19.20;91.80;;;;;;4987806;28;20042;-84
2023/06/27 01:17:22;;;;;;;;;;;19.20;91.70;;;;;;4981384;28;20023;-85
2023/06/27 01:19:50;;;;;;;3.53;2.60;;;19.30;91.70;;;;;;4980027;28;19905;-85
2023/06/27 01:22:18;;;;;;;4.50;2.65;;;19.30;91.70;;;;;;4963259;28;20117;-85
2023/06/27 01:24:45;;;;;;;5.82;2.90;;;19.30;91.70;;;;;;4979045;28;20039;-85
2023/06/27 01:27:11;;;;;;;3.75;2.60;;;19.30;91.70;;;;;;4979037;28;20018;-85
2023/06/27 01:29:40;;;;;;;5.38;2.85;;;19.30;91.60;;;;;;4963076;28;20030;-84
2023/06/27 01:32:33;;;;;;;5.55;2.78;;;19.30;91.50;;;;;;4979433;28;20033;-85
2023/06/27 01:35:04;;;;;;;4.32;2.60;;;19.30;91.50;;;;;;4958699;28;20042;-85
2023/06/27 01:37:45;;;;;;;4.70;2.80;;;19.30;91.40;;;;;;4996503;28;20479;-84
2023/06/27 01:40:19;;;;;;;6.60;3.13;;;19.30;91.40;;;;;;4978650;28;20026;-85
2023/06/27 01:42:53;;;;;;;5.95;2.95;;;19.30;91.40;;;;;;4978631;28;20026;-84
2023/06/27 01:45:19;;;;;;;5.28;2.88;;;19.40;91.40;;;;;;4978303;28;20018;-84
2023/06/27 01:47:46;;;;;;;3.72;2.47;;;19.30;91.40;;;;;;4978718;28;20145;-84
2023/06/27 01:50:12;;;;;;;3.42;2.70;;;19.40;91.40;;;;;;4962173;28;20038;-84
2023/06/27 01:52:38;;;;;;;5.35;2.95;;;19.30;91.40;;;;;;4962336;28;20452;-85
2023/06/27 01:55:04;;;;;;;6.57;3.00;;;19.40;91.50;;;;;;4962476;28;20037;-84
2023/06/27 01:57:30;;;;;;;6.28;3.08;;;19.40;91.40;;;;;;4962681;28;20123;-85
2023/06/27 01:59:56;;;;;;;5.47;2.67;;;19.40;91.40;;;;;;4962930;28;20065;-85
2023/06/27 02:02:21;;;;;;;4.15;3.05;;;19.40;91.40;;;;;;4962685;28;20032;-84
2023/06/27 02:04:47;;;;;;;4.72;2.58;;;19.40;91.30;;;;;;4978638;28;20042;-84
2023/06/27 02:07:13;;;;;;;4.53;2.70;;;19.30;91.30;;;;;;4962489;28;20045;-85
2023/06/27 02:09:38;;;;;;;5.45;2.75;;;19.30;91.40;;;;;;4978351;28;20030;-84
2023/06/27 02:12:05;;;;;;;4.80;2.83;;;19.30;91.40;;;;;;4962463;28;20057;-84
2023/06/27 02:14:31;;;;;;;7.00;2.85;;;19.30;91.40;;;;;;4977314;28;20506;-84
2023/06/27 02:16:57;;;;;;;6.93;3.08;;;19.30;91.40;;;;;;4962182;28;20468;-85
2023/06/27 02:19:22;;;;;;;4.93;2.70;;;19.30;91.40;;;;;;4961688;28;20030;-85
2023/06/27 02:21:49;;;;;;;6.50;3.15;;;19.30;91.50;;;;;;4962113;28;20034;-84
2023/06/27 02:24:15;;;;;;;4.15;2.70;;;19.30;91.50;;;;;;4995353;28;20046;-85
2023/06/27 02:26:41;;;;;;;5.82;2.90;;;19.20;91.50;;;;;;4976685;28;20030;-85
2023/06/27 02:29:07;;;;;;;5.32;3.00;;;19.20;91.50;;;;;;4945725;28;20037;-84
2023/06/27 02:31:32;;;;;;;4.35;2.38;;;19.20;91.80;;;;;;4961886;28;20029;-85
2023/06/27 02:33:59;;;;;;;4.72;2.72;;;19.20;91.60;;;;;;4977939;28;20081;-85
2023/06/27 02:36:27;;;;;;;7.13;2.75;;;19.20;91.60;;;;;;4977945;28;20037;-85
2023/06/27 02:38:54;;;;;;;6.00;2.85;;;19.20;91.60;;;;;;4978217;28;20030;-84
2023/06/27 02:41:22;;;;;;;5.50;2.90;;;19.20;91.70;;;;;;4978312;28;20158;-85
2023/06/27 02:43:47;;;;;;;4.95;2.92;;;19.10;91.70;;;;;;4995449;28;20026;-85
2023/06/27 02:46:13;;;;;;;7.78;3.42;;;19.10;91.70;;;;;;4995004;28;20092;-84
2023/06/27 02:48:39;;;;;;;7.40;3.28;;;19.10;91.80;;;;;;4978501;28;20121;-84
2023/06/27 02:51:05;;;;;;;6.95;3.25;;;19.00;91.80;;;;;;4996769;28;20065;-84
2023/06/27 02:53:30;;;;;;;4.95;2.42;;;19.00;91.80;;;;;;5001886;28;20533;-84
2023/06/27 02:56:02;;;;;;;8.48;3.55;;;19.00;91.90;;;;;;5005474;28;20507;-84
2023/06/27 02:58:32;;;;;;;7.78;3.00;;;18.90;92.00;;;;;;4980024;28;20022;-84
2023/06/27 03:01:06;;;;;;;6.63;2.90;;;18.90;92.00;;;;;;4984161;28;20019;-84
2023/06/27 03:03:35;;;;;;;6.75;3.17;;;18.90;92.00;;;;;;5002083;28;20022;-84
2023/06/27 03:06:08;;;;;;;7.40;3.25;;;18.90;92.10;;;;;;5002590;28;20042;-84
2023/06/27 03:08:37;;;;;;;5.50;3.10;;;18.80;92.10;;;;;;5000468;28;20030;-83
2023/06/27 03:11:03;;;;;;;5.50;2.92;;;18.80;92.20;;;;;;4978425;28;20031;-84
2023/06/27 03:13:29;;;;;;;6.53;3.17;;;18.80;92.30;;;;;;4977872;28;20031;-85
2023/06/27 03:15:54;;;;;;;7.38;3.30;;;18.80;92.30;;;;;;4961219;28;20447;-85
2023/06/27 03:18:20;;;;;;;8.80;3.35;;;18.70;92.30;;;;;;4977150;28;20031;-84
2023/06/27 03:20:45;;;;;;;8.27;3.10;;;18.70;92.40;;;;;;4994501;28;20030;-84
2023/06/27 03:23:11;;;;;;;6.57;3.20;;;18.70;92.40;;;;;;4973542;28;20059;-84
2023/06/27 03:25:37;;;;;;;6.70;3.00;;;18.60;92.50;;;;;;4925283;28;20445;-84
2023/06/27 03:28:02;;;;;;;6.28;3.33;;;18.60;92.50;;;;;;4941980;28;20046;-85
2023/06/27 03:30:28;;;;;;;10.13;3.38;;;18.60;92.50;;;;;;4941605;28;20046;-85
2023/06/27 03:32:54;;;;;;;7.45;3.58;;;18.60;92.60;;;;;;4941437;28;20035;-85
2023/06/27 03:35:20;;;;;;;5.50;3.10;;;18.60;92.60;;;;;;4941513;28;20043;-85
2023/06/27 03:37:46;;;;;;;7.15;2.97;;;18.60;92.70;;;;;;4973305;28;20464;-85
2023/06/27 03:40:11;;;;;;;6.85;3.28;;;18.50;92.70;;;;;;4974515;28;20474;-85
2023/06/27 03:42:37;;;;;;;8.25;3.65;;;18.50;92.70;;;;;;4957773;28;20030;-84
2023/06/27 03:45:03;;;;;;;8.90;3.63;;;18.50;92.80;;;;;;4957318;28;20038;-85
2023/06/27 03:47:30;;;;;;;5.35;2.90;;;18.50;92.80;;;;;;4941467;28;20035;-84
2023/06/27 03:49:55;;;;;;;7.05;3.40;;;18.40;92.90;;;;;;4957540;28;20023;-85
2023/06/27 03:52:21;;;;;;;5.88;3.35;;;18.40;93.00;;;;;;4974506;28;20130;-84
2023/06/27 03:54:47;;;;;;;8.18;3.60;;;18.40;93.00;;;;;;4941149;28;20031;-85
2023/06/27 03:57:12;;;;;;;5.07;2.95;;;18.40;93.10;;;;;;4972903;28;20034;-84
2023/06/27 03:59:38;;;;;;;7.15;3.55;;;18.50;93.10;;;;;;4957431;28;20058;-85
2023/06/27 04:02:04;;;;;;;5.25;3.17;;;18.50;93.10;;;;;;4925768;28;20126;-85
2023/06/27 04:04:30;;;;;;;6.18;3.53;;;18.50;93.10;;;;;;4941195;28;20037;-85
2023/06/27 04:06:55;;;;;;;6.07;3.33;;;18.50;93.10;;;;;;4957725;28;20445;-84
2023/06/27 04:09:21;;;;;;;6.10;3.20;;;18.50;93.10;;;;;;4941211;28;20029;-84
2023/06/27 04:11:46;;;;;;;6.63;3.55;;;18.50;93.50;;;;;;4957343;28;20102;-85
2023/06/27 04:14:17;;;;;;;7.57;3.28;;;18.60;93.30;;;;;;4974152;28;20101;-85
2023/06/27 04:16:43;;;;;;;4.95;3.30;;;18.60;93.30;;;;;;4957428;28;20027;-84
2023/06/27 04:19:09;;;;;;;7.72;3.33;;;18.60;93.40;;;;;;4972715;28;20039;-84
2023/06/27 04:21:34;;;;;;;5.68;3.35;;;18.70;93.40;;;;;;4974301;28;20081;-85
2023/06/27 04:24:00;;;;;;;5.18;3.03;;;18.70;93.50;;;;;;4962365;28;20046;-84
2023/06/27 04:26:26;;;;;;;10.45;3.40;;;18.70;93.50;;;;;;4960325;28;20073;-84
2023/06/27 04:28:51;;;;;;;9.30;3.65;;;18.80;93.50;;;;;;4992739;28;20465;-84
2023/06/27 04:31:17;;;;;;;6.22;3.45;;;18.80;93.50;;;;;;4993611;28;20030;-84
2023/06/27 04:33:43;;;;;;;6.10;3.42;;;18.80;93.40;;;;;;5009536;28;20380;-85
2023/06/27 04:36:09;;;;;;;6.78;3.42;;;18.80;93.40;;;;;;4976722;28;20041;-84
2023/06/27 04:38:39;;;;;;;5.50;3.08;;;18.80;93.40;;;;;;4979229;28;20030;-85
2023/06/27 04:41:05;;;;;;;8.15;3.78;;;18.80;93.30;;;;;;4980225;28;20495;-85
2023/06/27 04:43:32;;;;;;;7.28;3.92;;;18.90;93.30;;;;;;4981615;28;20030;-85
2023/06/27 04:45:59;;;;;;;7.53;3.88;;;18.80;93.30;;;;;;4984428;28;20034;-85
2023/06/27 04:48:25;;;;;;;6.78;3.97;;;18.80;93.30;;;;;;5004642;28;20030;-85
2023/06/27 04:50:50;;;;;;;7.35;4.13;;;18.80;93.30;;;;;;5000126;28;20053;-85
2023/06/27 04:53:19;;;;;;;7.47;3.72;;;18.90;93.40;;;;;;5020743;28;20019;-84
2023/06/27 04:55:45;;;;;;;9.00;3.97;;;18.80;93.40;;;;;;5004299;28;20023;-84
2023/06/27 04:58:11;;;;;;;7.60;3.85;;;18.90;93.40;;;;;;5003297;28;20458;-85
2023/06/27 05:00:37;;;;;;;5.90;3.30;;;18.90;93.50;;;;;;5018731;28;20034;-83
2023/06/27 05:03:02;;;;;;;7.50;3.85;;;18.90;93.50;;;;;;5001754;28;20037;-85
2023/06/27 05:05:33;;;;;;;7.45;3.63;;;19.00;93.60;;;;;;4985243;28;20034;-85
2023/06/27 05:08:04;;;;;;;11.05;4.07;;;19.00;93.60;;;;;;5001005;28;20026;-84
2023/06/27 05:10:33;;;;;;;5.10;3.22;;;19.00;93.60;;;;;;4984024;28;20026;-85
2023/06/27 05:12:59;;;;;;;6.95;3.55;;;18.90;93.60;;;;;;4986251;28;20030;-85
2023/06/27 05:15:26;;;;;;;6.70;3.72;;;19.00;93.60;;;;;;5000860;28;20081;-85
2023/06/27 05:18:07;;;;;;;7.88;3.78;;;19.00;93.70;;;;;;4996879;28;20027;-86
2023/06/27 05:20:33;;;;;;;8.30;3.95;;;19.00;93.70;;;;;;4996610;28;20026;-85
2023/06/27 05:23:00;;;;;;;7.97;3.75;;;19.10;93.70;;;;;;4970207;28;20470;-85
2023/06/27 05:25:26;;;;;;;7.18;3.88;;;19.10;93.80;;;;;;4944298;28;20038;-85
2023/06/27 05:27:52;;;;;;;6.53;3.38;;;19.10;93.80;;;;;;4944346;28;20031;-85
2023/06/27 05:30:18;;;;;;;7.63;3.88;;;19.10;93.90;;;;;;4944224;28;20142;-86
2023/06/27 05:32:43;;;;;;;7.78;3.72;;;19.20;93.90;;;;;;4928021;28;20023;-85
2023/06/27 05:35:09;;;;;;;9.75;3.75;;;19.20;93.90;;;;;;4943778;28;20037;-86
2023/06/27 05:37:34;;;;;;;7.82;3.60;;;19.20;93.90;;;;;;4959397;28;20105;-85
2023/06/27 05:40:00;;;;;;;7.28;3.58;;;19.20;94.00;;;;;;4943643;28;20475;-86
2023/06/27 05:42:26;;;;;;;10.40;4.25;;;19.20;94.00;;;;;;4959963;28;20110;-85
2023/06/27 05:44:51;;;;;;;10.55;4.50;;;19.30;94.10;;;;;;4927822;28;20045;-84
2023/06/27 05:47:17;;;;;;;8.93;3.85;;;19.30;94.10;;;;;;4943712;28;20031;-84
2023/06/27 05:49:42;;;;;;;8.77;4.43;;;19.30;94.10;;;;;;4959091;28;20027;-84
2023/06/27 05:52:08;;;;;;;8.45;4.18;;;19.30;94.10;;;;;;4959632;28;20070;-84
2023/06/27 05:54:34;;;;;;;10.75;4.18;;;19.40;94.20;;;;;;4927523;28;20035;-85
2023/06/27 05:56:59;;;;;;;8.68;4.13;;;19.40;94.30;;;;;;4943498;28;20030;-84
2023/06/27 05:59:25;;;;;;;8.90;4.45;;;19.50;94.60;;;;;;4927717;28;20093;-84
2023/06/27 06:01:50;;;;;;;10.88;4.93;;;19.40;94.30;;;;;;4942994;28;20027;-84
2023/06/27 06:04:16;;;;;;;8.68;4.07;;;19.50;94.30;;;;;;4943287;28;20551;-84
2023/06/27 06:06:43;;;;;;;10.23;4.07;;;19.50;94.40;;;;;;4942929;28;20567;-84
2023/06/27 06:09:08;;;;;;;8.82;4.28;;;19.50;94.40;;;;;;4927752;28;20039;-85
2023/06/27 06:11:34;;;;;;;8.27;4.00;;;19.60;94.40;;;;;;4943460;28;20472;-85
2023/06/27 06:14:04;;;;;;;10.18;4.07;;;19.60;94.40;;;;;;4959335;28;20038;-85
2023/06/27 06:16:33;;;;;;;11.75;4.55;;;19.60;94.40;;;;;;4958939;28;20074;-84
2023/06/27 06:19:00;;;;;;;11.43;4.53;;;19.60;94.40;;;;;;4976431;28;20027;-85
2023/06/27 06:21:27;;;;;;;10.30;4.07;;;19.70;94.50;;;;;;4959128;28;20026;-85
2023/06/27 06:23:53;;;;;;;8.95;4.18;;;19.70;94.50;;;;;;4952876;28;20047;-85
2023/06/27 06:26:18;;;;;;;8.35;4.25;;;19.80;94.50;;;;;;4958954;28;20027;-85
2023/06/27 06:28:44;;;;;;;11.23;3.88;;;19.80;94.50;;;;;;4958980;28;20041;-85
2023/06/27 06:31:11;;;;;;;7.88;4.10;;;19.90;94.50;;;;;;4959012;28;20027;-84
2023/06/27 06:33:38;;;;;;;8.20;4.05;;;19.90;94.40;;;;;;4976272;28;20059;-84
2023/06/27 06:36:04;;;;;;;7.50;3.92;;;19.90;94.40;;;;;;4958867;28;20088;-84
2023/06/27 06:38:30;;;;;;;8.32;3.80;;;19.90;94.40;;;;;;4943496;28;20109;-84
2023/06/27 06:40:56;;;;;;;8.45;3.90;;;20.00;94.40;;;;;;4942773;28;20455;-84
2023/06/27 06:43:25;;;;;;;10.70;4.10;;;20.00;94.30;;;;;;4927978;28;20381;-84
2023/06/27 06:45:52;;;;;;;9.70;3.88;;;20.10;94.30;;;;;;4957425;28;20026;-84
2023/06/27 06:48:19;;;;;;;6.63;2.92;;;20.20;94.30;;;;;;4982672;28;20045;-85
2023/06/27 06:50:45;;;;;;;12.48;3.78;;;20.20;94.30;;;;;;4982841;28;20051;-83
2023/06/27 06:53:11;;;;;;;7.15;3.63;;;20.30;94.30;;;;;;4966563;28;20039;-84
2023/06/27 06:55:36;;;;;;;13.50;4.53;;;20.40;94.30;;;;;;4981598;28;20094;-83
2023/06/27 06:58:02;;;;;;;10.38;3.83;;;20.40;94.00;;;;;;4981405;28;20031;-84
2023/06/27 07:00:27;;;;;;;6.72;3.53;;;20.40;94.00;;;;;;4941240;28;20373;-84
2023/06/27 07:02:54;;;;;;;7.15;3.03;;;20.40;94.00;;;;;;4958331;28;20038;-84
2023/06/27 07:05:19;;;;;;;5.93;3.13;;;20.50;93.90;;;;;;4975359;28;20079;-84
2023/06/27 07:07:45;;;;;;;7.50;3.30;;;20.60;93.80;;;;;;4957805;28;20036;-85
2023/06/27 07:10:11;;;;;;;7.05;3.13;;;20.60;93.80;;;;;;4975229;28;20035;-84
2023/06/27 07:12:36;;;;;;;6.20;3.05;;;20.70;93.40;;;;;;4974996;28;20027;-84
2023/06/27 07:15:02;;;;;;;6.75;2.80;;;20.70;93.40;;;;;;4941932;28;20031;-84
2023/06/27 07:17:28;;;;;;;4.20;2.20;;;20.80;93.30;;;;;;4926273;28;20436;-84
2023/06/27 07:19:54;;;;;;;4.75;2.35;;;20.90;93.20;;;;;;4957637;28;20392;-84
2023/06/27 07:22:21;;;;;;;7.07;2.50;;;21.00;93.20;;;;;;4958545;28;20034;-84
2023/06/27 07:24:46;;;;;;;4.90;2.60;;;21.10;92.90;;;;;;4961308;28;20484;-84
2023/06/27 07:27:12;;;;;;;5.15;2.40;;;21.10;92.60;;;;;;4976394;28;20061;-84
2023/06/27 07:29:38;;;;;;;5.07;2.17;;;21.20;92.40;;;;;;4976867;28;20026;-84
2023/06/27 07:32:04;;;;;;;5.68;2.40;;;21.20;92.30;;;;;;4944713;28;20053;-84
2023/06/27 07:34:30;;;;;;;5.47;1.88;;;21.30;92.30;;;;;;4960911;28;20042;-84
2023/06/27 07:36:56;;;;;;;6.03;1.85;;;21.30;92.20;;;;;;4960848;28;20105;-85
2023/06/27 07:39:21;;;;;;;4.97;2.05;;;21.50;92.20;;;;;;4976804;28;20460;-85
2023/06/27 07:41:47;;;;;;;4.22;1.80;;;21.50;91.80;;;;;;4994374;28;20464;-84
2023/06/27 07:44:13;;;;;;;7.53;2.20;;;21.60;91.60;;;;;;4960660;28;20027;-84
2023/06/27 07:46:38;;;;;;;5.68;1.67;;;21.60;91.20;;;;;;4993992;28;20046;-84
2023/06/27 07:49:04;;;;;;;4.05;1.88;;;21.70;91.20;;;;;;4976941;28;20058;-84
2023/06/27 07:51:31;;;;;;;3.90;1.77;;;21.70;90.90;;;;;;4976899;28;20122;-85
2023/06/27 07:53:56;;;;;;;5.22;1.65;;;21.80;90.70;;;;;;4976825;28;20476;-85
2023/06/27 07:56:22;;;;;;;4.63;1.60;;;21.80;90.70;;;;;;4976869;28;20034;-85
2023/06/27 07:58:48;;;;;;;3.42;1.65;;;21.80;90.70;;;;;;4976394;28;20027;-85
2023/06/27 08:01:14;;;;;;;4.50;1.80;;;21.90;90.70;;;;;;4960667;28;20026;-85
2023/06/27 08:03:39;;;;;;;5.15;1.90;;;22.00;90.60;;;;;;4960549;28;20026;-85
2023/06/27 08:06:05;;;;;;;5.25;1.67;;;22.10;90.60;;;;;;4976413;28;20031;-84
2023/06/27 08:08:31;;;;;;;3.78;1.60;;;22.20;90.40;;;;;;4976721;28;20034;-85
2023/06/27 08:10:57;;;;;;;4.57;1.55;;;22.20;90.10;;;;;;4994610;28;20034;-85
2023/06/27 08:13:24;;;;;;;2.85;1.50;;;22.20;89.80;;;;;;4980676;28;20026;-84
2023/06/27 08:15:49;;;;;;;5.00;1.30;;;22.20;89.50;;;;;;4980478;28;20373;-84
2023/06/27 08:18:15;;;;;;;3.95;1.77;;;22.30;89.20;;;;;;4980902;28;20151;-84
2023/06/27 08:20:41;;;;;;;3.28;1.10;;;22.30;89.00;;;;;;4981057;28;20113;-84
2023/06/27 08:23:07;;;;;;;3.20;1.40;;;22.30;88.80;;;;;;4956683;28;20070;-84
2023/06/27 08:25:32;;;;;;;4.72;1.73;;;22.40;87.90;;;;;;4945221;28;20054;-84
2023/06/27 08:27:58;;;;;;;3.92;1.60;;;22.40;87.70;;;;;;4945080;28;20397;-84
2023/06/27 08:30:26;;;;;;;3.58;1.35;;;22.50;87.50;;;;;;4961007;28;20113;-85
2023/06/27 08:32:54;;;;;;;8.52;1.73;;;22.60;87.50;;;;;;4961289;28;20082;-85
2023/06/27 08:35:20;;;;;;;4.72;1.63;;;22.60;87.60;;;;;;4961956;28;20035;-85
2023/06/27 08:37:46;;;;;;;8.63;1.65;;;22.70;87.10;;;;;;4961687;28;20035;-84
2023/06/27 08:40:20;;;;;;;2.88;1.38;;;22.70;86.60;;;;;;4988629;28;20027;-84
2023/06/27 08:42:46;;;;;;;3.70;1.45;;;22.70;86.60;;;;;;4946452;28;20079;-84
2023/06/27 08:45:12;;;;;;;3.75;1.33;;;22.80;86.30;;;;;;4960697;28;20022;-85
2023/06/27 08:47:41;;;;;;;4.40;1.30;;;22.80;86.20;;;;;;4968339;28;20046;-85
2023/06/27 08:50:12;;;;;;;3.47;1.17;;;22.80;85.80;;;;;;5001003;28;20035;-84
2023/06/27 08:52:43;;;;;;;3.20;1.10;;;22.80;85.40;;;;;;4983481;28;20046;-85
2023/06/27 08:55:16;;;;;;;3.70;1.23;;;22.90;85.50;;;;;;4999820;28;20053;-86
2023/06/27 08:57:43;;;;;;;5.13;1.48;;;22.90;85.50;;;;;;4967415;28;20113;-85
2023/06/27 09:00:13;;;;;;;4.25;1.52;;;23.00;85.60;;;;;;4960898;28;20026;-85
2023/06/27 09:02:40;;;;;;;3.53;1.50;;;23.00;84.90;;;;;;4960346;28;20465;-84
2023/06/27 09:05:07;;;;;;;5.60;1.50;;;23.00;84.20;;;;;;4975904;28;20502;-84
2023/06/27 09:07:33;;;;;;;3.78;1.45;;;23.00;84.10;;;;;;4960516;28;20034;-84
2023/06/27 09:09:59;;;;;;;3.40;1.50;;;23.10;83.70;;;;;;4960112;28;20049;-84
2023/06/27 09:12:27;;;;;;;3.85;1.33;;;23.10;83.70;;;;;;4960138;28;20078;-85
2023/06/27 09:14:53;;;;;;;4.75;1.40;;;23.10;84.50;;;;;;4959868;28;20033;-84
2023/06/27 09:17:19;;;;;;;2.78;1.30;;;23.10;83.50;;;;;;4959857;28;20027;-84
2023/06/27 09:19:45;;;;;;;2.47;0.95;;;23.20;83.50;;;;;;4960096;28;20042;-85
2023/06/27 09:22:15;;;;;;;2.40;0.95;;;23.20;83.00;;;;;;4943733;28;20433;-84
2023/06/27 09:24:41;;;;;;;;;;;23.20;82.60;;;;;;4959947;28;20077;-84
2023/06/27 09:27:28;;;;;;;1.98;1.00;;;23.20;82.20;;;;;;4959669;28;19993;-84
2023/06/27 09:29:54;;;;;;;3.83;1.30;;;23.20;81.80;;;;;;4959540;28;20199;-84
2023/06/27 09:32:20;;;;;;;2.13;1.10;;;23.10;81.70;;;;;;4943490;28;20031;-84
2023/06/27 09:34:45;;;;;;;3.35;1.20;;;23.10;81.20;;;;;;4943480;28;20539;-85
2023/06/27 09:37:11;;;;;;;2.35;1.15;;;23.20;80.80;;;;;;4959542;28;20030;-84
2023/06/27 09:39:36;;;;;;;2.65;0.90;;;23.20;81.10;;;;;;4943503;28;20388;-85
2023/06/27 09:42:02;;;;;;;2.30;1.20;;;23.20;81.30;;;;;;4943024;28;20019;-85
2023/06/27 09:44:28;;;;;;;2.22;1.00;;;23.20;79.70;;;;;;4959309;28;20452;-85
2023/06/27 09:46:54;;;;;;;2.92;1.10;;;23.30;79.60;;;;;;4927191;28;20038;-84
2023/06/27 09:49:21;;;;;;;5.85;1.30;;;23.40;79.30;;;;;;4927253;28;20022;-85
2023/06/27 09:51:52;;;;;;;2.78;1.13;;;23.30;79.10;;;;;;4959200;28;20018;-85
2023/06/27 09:54:22;;;;;;;1.75;1.00;;;23.40;79.10;;;;;;4960159;28;20027;-85
2023/06/27 09:56:50;;;;;;;2.10;1.10;;;23.40;78.80;;;;;;4976692;28;20103;-84
2023/06/27 09:59:17;;;;;;;1.80;0.90;;;23.40;78.40;;;;;;4943624;28;20030;-85
2023/06/27 10:01:43;;;;;;;4.72;1.00;;;23.40;77.90;;;;;;4943518;28;20035;-84
2023/06/27 10:04:09;;;;;;;2.83;1.05;;;23.50;78.00;;;;;;4958973;28;20121;-84
2023/06/27 10:06:35;;;;;;;2.15;0.95;;;23.50;77.00;;;;;;4943210;28;20043;-83
2023/06/27 10:09:01;;;;;;;2.13;0.95;;;23.50;76.60;;;;;;4976353;28;20027;-84
2023/06/27 10:11:27;;;;;;;1.92;1.00;;;23.50;76.80;;;;;;4958899;28;20065;-84
2023/06/27 10:13:53;;;;;;;1.95;0.98;;;23.60;76.70;;;;;;4958750;28;20051;-84
2023/06/27 10:16:19;;;;;;;2.28;1.00;;;23.60;77.00;;;;;;4976003;28;20066;-84
2023/06/27 10:18:47;;;;;;;2.65;1.30;;;23.60;76.60;;;;;;4942990;28;20030;-84
2023/06/27 10:21:14;;;;;;;2.42;0.90;;;23.60;76.80;;;;;;4942989;28;20385;-84
2023/06/27 10:23:44;;;;;;;0.90;0.70;;;23.70;77.40;;;;;;4958642;28;20047;-84
2023/06/27 10:26:10;;;;;;;2.67;1.17;;;23.70;77.00;;;;;;4975678;28;20035;-84
2023/06/27 10:28:36;;;;;;;3.72;1.00;;;23.70;75.60;;;;;;4942541;28;20358;-84
2023/06/27 10:31:04;;;;;;;2.75;0.98;;;23.80;75.90;;;;;;4942234;28;20023;-84
2023/06/27 10:33:32;;;;;;;2.22;0.90;;;23.80;75.90;;;;;;4958985;28;20050;-84
2023/06/27 10:36:00;;;;;;;1.35;0.77;;;23.90;75.90;;;;;;4957487;28;20031;-84
2023/06/27 10:38:38;;;;;;;4.45;1.15;;;23.90;75.80;;;;;;4958481;28;20461;-84
2023/06/27 10:41:07;;;;;;;1.90;0.85;;;23.90;75.70;;;;;;4959091;28;20106;-84
2023/06/27 10:43:45;;;;;;;3.55;0.90;;;23.90;75.70;;;;;;4961210;28;20082;-85
2023/06/27 10:46:19;;;;;;;2.53;1.20;;;23.90;75.20;;;;;;4980681;28;20051;-85
2023/06/27 10:48:57;;;;;;;3.53;1.05;;;23.90;75.10;;;;;;4982953;28;20019;-83
2023/06/27 10:51:32;;;;;;;2.78;1.13;;;23.90;75.30;;;;;;4999331;28;20025;-85
2023/06/27 10:54:07;;;;;;;3.50;1.17;;;23.90;75.50;;;;;;4982388;28;20034;-85
2023/06/27 10:56:34;;;;;;;5.38;1.33;;;23.90;75.60;;;;;;4981427;28;20041;-85
2023/06/27 10:59:02;;;;;;;3.38;0.90;;;23.90;75.40;;;;;;4981178;28;20018;-86
2023/06/27 11:01:29;;;;;;;2.15;0.98;;;24.00;75.40;;;;;;4963536;28;20027;-85
2023/06/27 11:03:57;;;;;;;2.35;0.90;;;23.90;75.40;;;;;;4942935;28;20026;-84
2023/06/27 11:06:39;;;;;;;3.42;1.30;;;24.00;75.20;;;;;;4942418;28;20066;-84
2023/06/27 11:09:05;;;;;;;3.45;0.82;;;23.90;74.80;;;;;;4941744;28;20030;-84
2023/06/27 11:11:33;;;;;;;2.25;0.88;;;23.90;73.90;;;;;;4942203;28;20027;-85
2023/06/27 11:14:07;;;;;;;2.63;0.90;;;23.90;74.00;;;;;;4957961;28;20465;-84
2023/06/27 11:16:36;;;;;;;1.88;0.90;;;23.80;74.00;;;;;;4958041;28;20031;-85
2023/06/27 11:19:04;;;;;;;1.65;0.90;;;23.80;74.10;;;;;;4975160;28;20109;-85
2023/06/27 11:21:31;;;;;;;6.35;1.25;;;23.90;74.40;;;;;;4942144;28;20060;-85
2023/06/27 11:24:00;;;;;;;3.20;0.85;;;23.90;74.20;;;;;;4955673;28;20415;-85
2023/06/27 11:26:26;;;;;;;1.63;0.63;;;23.90;74.00;;;;;;4994201;28;20030;-85
2023/06/27 11:28:52;;;;;;;3.92;1.00;;;23.90;73.70;;;;;;4994524;28;20030;-85
2023/06/27 11:31:18;;;;;;;1.10;0.85;;;24.00;73.10;;;;;;4961242;28;20543;-84
2023/06/27 11:33:44;;;;;;;4.40;1.15;;;24.00;72.90;;;;;;4977362;28;20038;-84
2023/06/27 11:36:10;;;;;;;4.47;1.27;;;24.00;71.40;;;;;;4994287;28;20437;-84
2023/06/27 11:38:35;;;;;;;4.53;1.05;;;23.90;71.00;;;;;;4976668;28;20031;-84
2023/06/27 11:41:02;;;;;;;1.35;0.80;;;23.90;71.10;;;;;;4976986;28;20027;-85
2023/06/27 11:43:28;;;;;;;2.38;1.02;;;23.90;71.80;;;;;;4994383;28;20027;-85
2023/06/27 11:45:58;;;;;;;3.10;1.20;;;23.90;71.80;;;;;;4961115;28;20042;-84
2023/06/27 11:48:24;;;;;;;2.97;1.00;;;23.90;72.10;;;;;;4998523;28;20018;-85
2023/06/27 11:51:10;;;;;;;1.95;1.00;;;24.00;72.50;;;;;;4981212;28;20491;-85
2023/06/27 11:53:36;;;;;;;2.30;0.90;;;24.10;72.70;;;;;;4949595;28;20468;-84
2023/06/27 11:56:03;;;;;;;3.28;1.10;;;24.20;72.90;;;;;;4998764;28;20035;-84
2023/06/27 11:58:34;;;;;;;2.13;1.10;;;24.20;72.40;;;;;;4998064;28;20018;-84
2023/06/27 12:01:01;;;;;;;2.90;0.85;;;24.20;71.60;;;;;;4980708;28;20030;-85
2023/06/27 12:03:33;;;;;;;3.28;0.95;;;24.20;71.90;;;;;;4998339;28;20022;-85
2023/06/27 12:05:59;;;;;;;2.30;0.95;;;24.30;72.20;;;;;;4980595;28;20150;-85
2023/06/27 12:08:29;;;;;;;2.08;0.90;;;24.30;71.70;;;;;;4980661;28;20042;-85
2023/06/27 12:10:57;;;;;;;2.92;1.00;;;24.30;71.80;;;;;;4980781;28;20089;-84
2023/06/27 12:13:50;;;;;;;2.40;0.80;;;24.40;71.70;;;;;;4980327;28;20034;-85
2023/06/27 12:16:42;;;;;;;2.33;0.80;;;24.40;71.60;;;;;;4994880;28;20047;-84
2023/06/27 12:19:09;;;;;;;1.85;1.00;;;24.40;71.90;;;;;;4976495;28;20567;-85
2023/06/27 12:21:35;;;;;;;2.28;0.85;;;24.40;72.00;;;;;;4980545;28;20035;-85
2023/06/27 12:24:01;;;;;;;3.25;1.00;;;24.50;72.30;;;;;;4983460;28;20053;-84
2023/06/27 12:26:26;;;;;;;4.15;1.17;;;24.50;72.40;;;;;;4960911;28;20035;-85
2023/06/27 12:29:03;;;;;;;3.95;1.23;;;24.60;71.70;;;;;;4961475;28;20429;-85
2023/06/27 12:31:29;;;;;;;2.55;1.08;;;24.60;71.40;;;;;;4978191;28;20030;-85
2023/06/27 12:33:55;;;;;;;2.45;1.08;;;24.60;71.10;;;;;;4945158;28;20035;-84
2023/06/27 12:36:22;;;;;;;12.70;2.25;;;24.60;70.90;;;;;;4978304;28;20035;-85
2023/06/27 12:38:49;;;;;;;44.35;7.85;;;24.70;70.80;;;;;;4961138;28;20031;-85
2023/06/27 12:41:16;;;;;;;8.77;3.00;;;24.70;70.30;;;;;;4945216;28;20027;-85
2023/06/27 12:43:42;;;;;;;5.03;1.85;;;24.70;70.30;;;;;;4978377;28;20485;-85
2023/06/27 12:46:07;;;;;;;3.53;1.25;;;24.70;70.40;;;;;;4945175;28;20077;-85